.
WxDataArchive / Data Records for 2013-08-07
2013-08-06 August 2013 2013-08-08

Data Records for Wednesday, 07 August 2013

Time	Temp	Chill	HIndex	Humid	Dewpt	 Wind 	HiWind	WindDir	Rain 	Barom 
-----	----	-----	------	-----	-----	------	------	-------	-----	----- 
00:00	70.8	70.8	70.8	89	67.4	0	0	---	0.00	29.884 
00:05	70.6	70.6	70.6	89	67.2	0	0	---	0.00	29.884 
00:10	70.4	70.4	70.4	89	67.0	0	0	---	0.00	29.884 
00:15	70.3	70.3	70.3	90	67.2	0	0	---	0.00	29.886 
00:20	70.3	70.3	70.3	90	67.2	0	0	---	0.00	29.886 
00:25	70.3	70.3	70.3	90	67.2	0	0	---	0.00	29.886 
00:30	70.3	70.3	70.3	90	67.2	0	0	---	0.00	29.888 
00:35	70.3	70.3	70.3	90	67.2	0	0	---	0.00	29.888 
00:40	70.3	70.3	70.3	91	67.5	0	0	---	0.00	29.888 
00:45	70.3	70.3	70.3	91	67.5	0	0	---	0.00	29.886 
00:50	70.3	70.3	70.3	91	67.5	0	0	---	0.00	29.886 
00:55	70.3	70.3	70.3	91	67.5	0	0	---	0.00	29.886 
01:00	70.3	70.3	70.3	91	67.5	0	0	---	0.00	29.884 
01:05	70.4	70.4	70.4	91	67.6	0	0	---	0.00	29.884 
01:10	70.4	70.4	70.4	91	67.6	0	0	---	0.00	29.884 
01:15	70.4	70.4	70.4	91	67.6	0	0	---	0.00	29.879 
01:20	70.4	70.4	70.4	91	67.6	0	0	---	0.00	29.879 
01:25	70.4	70.4	70.4	91	67.6	0	0	---	0.00	29.879 
01:30	70.4	70.4	70.4	91	67.6	0	0	---	0.00	29.874 
01:35	70.4	70.4	70.4	91	67.6	0	0	---	0.00	29.874 
01:40	70.4	70.4	70.4	91	67.6	0	0	---	0.00	29.874 
01:45	70.4	70.4	70.4	91	67.6	0	0	---	0.00	29.874 
01:50	70.6	70.6	70.6	91	67.8	0	0	---	0.00	29.874 
01:55	70.6	70.6	70.6	91	67.8	0	0	---	0.00	29.874 
02:00	70.4	70.4	70.4	91	67.6	0	0	---	0.00	29.870 
02:05	70.4	70.4	70.4	91	67.6	0	0	---	0.00	29.870 
02:10	70.4	70.4	70.4	91	67.6	0	0	---	0.00	29.870 
02:15	70.4	70.4	70.4	91	67.6	0	0	---	0.00	29.869 
02:20	70.4	70.4	70.4	91	67.6	0	1	22	0.00	29.869 
02:25	70.4	70.4	70.4	91	67.6	0	0	---	0.00	29.869 
02:30	70.4	70.4	70.4	91	67.6	0	1	22	0.00	29.866 
02:35	70.6	70.6	70.6	91	67.8	0	1	22	0.00	29.866 
02:40	70.6	70.6	70.6	91	67.8	0	1	22	0.00	29.866 
02:45	70.6	70.6	70.6	91	67.8	0	0	---	0.00	29.868 
02:50	70.6	70.6	70.6	91	67.8	0	1	22	0.00	29.868 
02:55	70.4	70.4	70.4	91	67.6	0	0	---	0.00	29.868 
03:00	70.4	70.4	70.4	91	67.6	0	0	---	0.00	29.866 
03:05	70.4	70.4	70.4	91	67.6	0	0	---	0.00	29.866 
03:10	70.6	70.6	70.6	91	67.8	0	0	---	0.00	29.866 
03:15	70.6	70.6	70.6	91	67.8	0	1	22	0.00	29.857 
03:20	70.6	70.6	70.6	91	67.8	0	0	---	0.00	29.857 
03:25	70.6	70.6	70.6	91	67.8	0	1	22	0.00	29.857 
03:30	70.6	70.6	70.6	91	67.8	0	0	---	0.00	29.851 
03:35	70.6	70.6	70.6	91	67.8	0	0	---	0.00	29.851 
03:40	70.6	70.6	70.6	92	68.2	0	1	22	0.00	29.851 
03:45	70.6	70.6	70.6	92	68.2	0	1	22	0.00	29.852 
03:50	70.6	70.6	70.6	92	68.2	0	0	---	0.00	29.852 
03:55	70.6	70.6	70.6	92	68.2	0	0	---	0.00	29.852 
04:00	70.6	70.6	70.6	92	68.2	0	0	---	0.00	29.851 
04:05	70.6	70.6	70.6	92	68.2	0	0	---	0.00	29.851 
04:10	70.6	70.6	70.6	92	68.2	0	0	---	0.00	29.851 
04:15	70.6	70.6	70.6	92	68.2	0	0	---	0.00	29.852 
04:20	70.6	70.6	70.6	92	68.2	0	0	---	0.00	29.852 
04:25	70.6	70.6	70.6	92	68.2	0	0	---	0.00	29.852 
04:30	70.6	70.6	70.6	92	68.2	0	0	---	0.00	29.851 
04:35	70.6	70.6	70.6	92	68.2	0	0	---	0.00	29.851 
04:40	70.6	70.6	70.6	92	68.2	0	0	---	0.00	29.851 
04:45	70.6	70.6	70.6	92	68.2	0	0	---	0.00	29.850 
04:50	70.6	70.6	70.6	92	68.2	0	0	---	0.00	29.850 
04:55	70.6	70.6	70.6	92	68.2	0	0	---	0.00	29.850 
05:00	70.6	70.6	70.6	92	68.2	0	0	---	0.00	29.841 
05:05	70.6	70.6	70.6	92	68.2	0	0	---	0.00	29.841 
05:10	70.6	70.6	70.6	92	68.2	0	1	22	0.00	29.841 
05:15	70.6	70.6	70.6	92	68.2	0	0	---	0.00	29.840 
05:20	70.6	70.6	70.6	92	68.2	0	0	---	0.00	29.840 
05:25	70.4	70.4	70.4	92	68.0	0	0	---	0.00	29.840 
05:30	70.4	70.4	70.4	92	68.0	0	0	---	0.00	29.838 
05:35	70.4	70.4	70.4	92	68.0	0	0	---	0.00	29.838 
05:40	70.6	70.6	70.6	92	68.2	0	0	---	0.00	29.838 
05:45	70.6	70.6	70.6	92	68.2	0	0	---	0.00	29.832 
05:50	70.6	70.6	70.6	92	68.2	0	0	---	0.00	29.832 
05:55	70.6	70.6	70.6	92	68.2	0	0	---	0.00	29.832 
06:00	70.6	70.6	70.6	92	68.2	0	1	22	0.00	29.835 
06:05	70.8	70.8	70.8	92	68.4	0	1	22	0.00	29.835 
06:10	70.8	70.8	70.8	92	68.4	0	0	---	0.00	29.835 
06:15	70.8	70.8	70.8	92	68.4	0	0	---	0.00	29.834 
06:20	70.9	70.9	70.9	92	68.5	0	1	22	0.00	29.834 
06:25	70.9	70.9	70.9	93	68.8	0	0	---	0.00	29.834 
06:30	71.1	71.1	71.1	93	69.0	0	2	22	0.00	29.828 
06:35	71.1	71.1	71.1	93	69.0	0	1	22	0.00	29.828 
06:40	71.1	71.1	71.1	93	69.0	0	1	22	0.00	29.828 
06:45	71.1	71.1	71.1	93	69.0	0	0	---	0.00	29.835 
06:50	71.1	71.1	71.1	93	69.0	0	1	22	0.00	29.835 
06:55	71.3	71.3	71.3	93	69.2	0	0	---	0.00	29.835 
07:00	71.3	71.3	71.3	93	69.2	0	0	---	0.00	29.837 
07:05	71.3	71.3	71.3	93	69.2	0	1	22	0.00	29.837 
07:10	71.3	71.3	71.3	93	69.2	0	0	---	0.00	29.837 
07:15	71.3	71.3	71.3	93	69.2	0	0	---	0.00	29.836 
07:20	71.5	71.5	71.5	93	69.4	0	0	---	0.00	29.836 
07:25	71.5	71.5	71.5	93	69.4	0	0	---	0.00	29.836 
07:30	71.5	71.5	71.5	93	69.4	0	0	---	0.00	29.831 
07:35	71.5	71.5	71.5	93	69.4	0	0	---	0.00	29.831 
07:40	71.5	71.5	71.5	93	69.4	0	0	---	0.00	29.831 
07:45	71.5	71.5	71.5	93	69.4	0	1	22	0.00	29.837 
07:50	71.6	71.6	71.6	93	69.5	0	0	---	0.00	29.837 
07:55	71.8	71.8	71.8	93	69.7	0	1	22	0.00	29.837 
08:00	72.0	72.0	72.0	93	69.9	0	1	22	0.00	29.848 
08:05	72.1	72.1	72.1	93	70.0	0	1	22	0.00	29.848 
08:10	72.3	72.3	72.3	93	70.2	0	1	22	0.00	29.848 
08:15	72.5	72.5	72.5	92	70.0	0	1	22	0.00	29.851 
08:20	72.5	72.5	72.5	92	70.0	0	1	22	0.00	29.851 
08:25	72.7	72.7	72.7	92	70.2	0	2	0	0.00	29.851 
08:30	72.8	72.8	72.8	92	70.3	0	1	0	0.00	29.854 
08:35	73.0	73.0	73.0	92	70.5	0	1	0	0.00	29.854 
08:40	73.0	73.0	73.0	91	70.2	0	2	0	0.00	29.854 
08:45	73.2	73.2	73.2	91	70.4	0	1	0	0.00	29.854 
08:50	73.2	73.2	73.2	91	70.4	0	1	0	0.00	29.854 
08:55	73.3	73.3	73.3	90	70.2	0	2	0	0.00	29.854 
09:00	73.3	73.3	73.3	90	70.2	0	2	315	0.00	29.861 
09:05	73.5	73.5	73.5	90	70.4	0	1	315	0.00	29.861 
09:10	73.7	73.7	73.7	90	70.6	0	0	---	0.00	29.861 
09:15	74.0	74.0	74.0	90	70.9	0	0	---	0.00	29.863 
09:20	74.2	74.2	74.2	89	70.7	0	2	315	0.00	29.863 
09:25	74.7	74.7	74.7	89	71.2	0	2	22	0.00	29.863 
09:30	75.4	75.4	75.1	88	71.6	0	1	0	0.00	29.866 
09:35	76.0	76.0	76.5	86	71.5	0	1	338	0.00	29.866 
09:40	76.7	76.7	77.9	84	71.5	0	1	338	0.00	29.866 
09:45	77.2	77.2	78.9	82	71.3	0	1	338	0.00	29.865 
09:50	77.6	77.6	79.6	80	70.9	0	1	338	0.00	29.865 
09:55	77.6	77.6	79.6	80	70.9	0	1	338	0.00	29.865 
10:00	77.4	77.4	79.2	80	70.7	0	2	338	0.00	29.865 
10:05	77.4	77.4	79.2	81	71.1	0	2	248	0.00	29.865 
10:10	77.6	77.6	79.6	81	71.3	0	3	248	0.00	29.865 
10:15	77.7	77.7	79.8	80	71.0	0	2	112	0.00	29.868 
10:20	78.1	78.1	80.5	80	71.4	0	3	68	0.00	29.868 
10:25	78.3	78.3	80.8	78	70.9	1	4	0	0.00	29.868 
10:30	78.8	78.8	81.7	78	71.3	0	2	270	0.00	29.859 
10:35	78.8	78.8	81.5	76	70.6	1	3	292	0.00	29.859 
10:40	79.2	79.2	82.3	77	71.3	1	4	292	0.00	29.859 
10:45	79.4	79.4	82.5	75	70.8	1	3	292	0.00	29.865 
10:50	79.8	79.8	83.2	75	71.1	0	2	292	0.00	29.865 
10:55	80.3	80.3	83.9	73	70.8	1	3	68	0.00	29.865 
11:00	80.7	80.7	84.6	73	71.2	1	4	292	0.00	29.864 
11:05	80.7	80.7	84.6	73	71.2	0	2	338	0.00	29.864 
11:10	80.9	80.9	85.0	73	71.4	1	3	338	0.00	29.864 
11:15	80.9	80.9	84.5	70	70.2	1	4	248	0.00	29.865 
11:20	80.9	80.9	84.5	70	70.2	1	3	248	0.00	29.865 
11:25	80.7	80.7	84.1	70	70.0	1	3	248	0.00	29.865 
11:30	80.9	80.9	84.6	71	70.6	1	4	248	0.00	29.866 
11:35	80.9	80.9	84.3	69	69.8	1	3	248	0.00	29.866 
11:40	80.7	80.7	84.1	70	70.0	1	2	248	0.00	29.866 
11:45	80.3	80.3	83.4	70	69.6	0	3	248	0.00	29.868 
11:50	79.8	79.8	82.6	70	69.1	1	3	248	0.00	29.868 
11:55	79.9	79.9	83.0	72	70.0	1	3	248	0.00	29.868 
12:00	80.7	80.7	84.4	72	70.8	0	2	248	0.00	29.866 
12:05	81.2	81.2	85.2	71	70.9	1	2	248	0.00	29.866 
12:10	81.8	81.8	85.9	69	70.6	1	2	248	0.00	29.866 
12:15	82.0	82.0	86.0	68	70.4	1	3	225	0.00	29.865 
12:20	81.8	81.8	85.5	67	69.7	0	2	225	0.00	29.865 
12:25	81.2	81.2	84.6	68	69.6	1	3	225	0.00	29.865 
12:30	81.1	81.1	85.0	71	70.8	0	1	225	0.00	29.867 
12:35	81.1	81.1	84.8	70	70.4	0	1	225	0.00	29.867 
12:40	81.2	81.2	85.0	70	70.5	0	2	225	0.00	29.867 
12:45	81.6	81.6	85.7	70	70.8	0	2	225	0.00	29.865 
12:50	82.4	82.4	86.7	68	70.8	1	3	292	0.00	29.865 
12:55	82.4	82.4	86.5	67	70.3	0	2	292	0.00	29.865 
13:00	82.0	82.0	86.0	68	70.4	1	4	292	0.00	29.864 
13:05	81.6	81.6	85.7	70	70.8	0	2	45	0.00	29.864 
13:10	81.8	81.8	85.9	69	70.6	1	3	248	0.00	29.864 
13:15	81.8	81.8	86.1	70	71.0	1	4	292	0.00	29.854 
13:20	82.2	82.2	86.4	68	70.6	1	3	248	0.00	29.854 
13:25	82.4	82.4	86.7	68	70.8	1	2	248	0.00	29.854 
13:30	82.2	82.2	86.6	69	71.0	1	3	292	0.00	29.849 
13:35	82.2	82.2	86.6	69	71.0	1	3	292	0.00	29.849 
13:40	82.4	82.4	86.7	68	70.8	1	4	270	0.00	29.849 
13:45	82.8	82.8	87.7	69	71.6	1	3	270	0.00	29.840 
13:50	83.0	83.0	87.3	66	70.4	1	3	292	0.00	29.840 
13:55	83.0	83.0	87.1	65	70.0	1	3	270	0.00	29.840 
14:00	83.2	83.2	87.5	65	70.2	1	3	315	0.00	29.839 
14:05	83.0	83.0	87.1	65	70.0	1	4	292	0.00	29.839 
14:10	83.0	83.0	87.6	67	70.9	1	3	292	0.00	29.839 
14:15	82.8	82.8	87.2	67	70.7	1	3	315	0.00	29.837 
14:20	82.4	82.4	86.3	66	69.9	1	3	292	0.00	29.837 
14:25	82.6	82.6	87.3	69	71.4	1	4	270	0.00	29.837 
14:30	83.0	83.0	87.9	68	71.3	0	3	270	0.00	29.835 
14:35	83.6	83.6	88.5	66	71.0	1	5	90	0.00	29.835 
14:40	83.6	83.6	88.5	66	71.0	2	4	270	0.00	29.835 
14:45	83.6	83.6	88.2	65	70.6	2	5	270	0.00	29.833 
14:50	83.8	83.8	89.4	68	72.1	1	3	248	0.00	29.833 
14:55	83.8	83.8	88.6	65	70.7	1	3	112	0.00	29.833 
15:00	83.6	83.6	88.5	66	71.0	1	3	248	0.00	29.834 
15:05	83.2	83.2	87.7	66	70.6	1	3	90	0.00	29.834 
15:10	82.8	82.8	87.5	68	71.1	1	4	90	0.00	29.834 
15:15	82.6	82.6	87.1	68	70.9	0	2	248	0.00	29.832 
15:20	82.4	82.4	86.7	68	70.8	1	5	270	0.00	29.832 
15:25	82.4	82.4	86.7	68	70.8	0	2	90	0.00	29.832 
15:30	82.6	82.6	87.1	68	70.9	1	3	45	0.00	29.832 
15:35	82.4	82.4	86.7	68	70.8	1	3	338	0.00	29.832 
15:40	82.4	82.4	86.5	67	70.3	1	3	315	0.00	29.832 
15:45	82.6	82.6	87.1	68	70.9	1	4	68	0.00	29.828 
15:50	82.2	82.2	86.4	68	70.6	1	3	270	0.00	29.828 
15:55	82.4	82.4	87.0	69	71.2	1	3	45	0.00	29.828 
16:00	82.6	82.6	86.9	67	70.5	1	3	270	0.00	29.831 
16:05	83.2	83.2	88.2	68	71.5	0	3	270	0.00	29.831 
16:10	83.8	83.8	88.3	64	70.3	1	3	292	0.00	29.831 
16:15	84.3	84.3	88.9	63	70.3	1	3	292	0.00	29.831 
16:20	84.3	84.3	88.9	63	70.3	0	2	292	0.00	29.831 
16:25	84.1	84.1	88.5	63	70.1	1	3	292	0.00	29.831 
16:30	83.8	83.8	88.0	63	69.8	1	3	270	0.00	29.828 
16:35	83.4	83.4	87.3	63	69.5	1	3	270	0.00	29.828 
16:40	83.0	83.0	86.6	63	69.1	0	2	270	0.00	29.828 
16:45	83.0	83.0	87.1	65	70.0	0	1	270	0.00	29.826 
16:50	82.6	82.6	86.4	65	69.6	1	3	270	0.00	29.826 
16:55	82.4	82.4	86.1	65	69.4	0	3	45	0.00	29.826 
17:00	82.2	82.2	85.7	65	69.2	0	1	45	0.00	29.826 
17:05	81.8	81.8	85.1	65	68.9	0	1	45	0.00	29.826 
17:10	81.8	81.8	85.3	66	69.3	0	1	22	0.00	29.826 
17:15	81.6	81.6	84.9	66	69.1	0	2	22	0.00	29.830 
17:20	81.4	81.4	84.8	67	69.4	0	2	22	0.00	29.830 
17:25	81.2	81.2	84.5	67	69.2	0	1	22	0.00	29.830 
17:30	81.2	81.2	84.5	67	69.2	0	2	0	0.00	29.824 
17:35	81.2	81.2	84.6	68	69.6	0	1	0	0.00	29.824 
17:40	81.1	81.1	84.6	69	69.9	0	2	0	0.00	29.824 
17:45	81.1	81.1	84.8	70	70.4	0	1	0	0.00	29.818 
17:50	80.9	80.9	84.6	71	70.6	0	1	0	0.00	29.818 
17:55	80.7	80.7	84.3	71	70.4	0	1	0	0.00	29.818 
18:00	80.5	80.5	83.9	71	70.2	1	2	0	0.00	29.827 
18:05	80.5	80.5	83.9	71	70.2	0	2	0	0.00	29.827 
18:10	80.5	80.5	83.9	71	70.2	0	1	0	0.00	29.827 
18:15	80.5	80.5	83.9	71	70.2	0	3	0	0.00	29.823 
18:20	80.3	80.3	83.6	71	70.0	0	1	0	0.00	29.823 
18:25	80.3	80.3	83.7	72	70.4	0	2	0	0.00	29.823 
18:30	80.3	80.3	83.7	72	70.4	0	2	0	0.00	29.826 
18:35	80.3	80.3	83.7	72	70.4	0	2	0	0.00	29.826 
18:40	80.3	80.3	83.9	73	70.8	0	1	0	0.00	29.826 
18:45	80.3	80.3	83.7	72	70.4	0	1	0	0.00	29.827 
18:50	80.1	80.1	83.5	73	70.6	0	0	---	0.00	29.827 
18:55	80.1	80.1	83.5	73	70.6	0	1	0	0.00	29.827 
19:00	80.1	80.1	83.5	73	70.6	0	1	0	0.00	29.818 
19:05	80.1	80.1	83.5	73	70.6	0	0	---	0.00	29.818 
19:10	80.1	80.1	83.4	72	70.2	0	1	0	0.00	29.818 
19:15	80.1	80.1	83.5	73	70.6	0	0	---	0.00	29.818 
19:20	80.1	80.1	83.5	73	70.6	0	1	0	0.00	29.818 
19:25	80.1	80.1	83.5	73	70.6	0	1	0	0.00	29.818 
19:30	79.9	79.9	83.1	73	70.4	0	1	0	0.00	29.818 
19:35	79.9	79.9	83.0	72	70.0	0	1	0	0.00	29.818 
19:40	79.9	79.9	83.0	72	70.0	0	1	0	0.00	29.818 
19:45	79.9	79.9	83.0	72	70.0	0	1	0	0.00	29.828 
19:50	79.9	79.9	83.0	72	70.0	0	1	0	0.00	29.828 
19:55	79.9	79.9	83.1	73	70.4	0	0	---	0.00	29.828 
20:00	79.8	79.8	83.0	73	70.4	0	1	0	0.00	29.832 
20:05	79.8	79.8	83.1	74	70.8	0	0	---	0.00	29.832 
20:10	79.6	79.6	82.8	75	71.0	0	0	---	0.00	29.832 
20:15	79.4	79.4	82.5	75	70.8	0	2	0	0.00	29.834 
20:20	79.2	79.2	82.2	76	71.0	0	0	---	0.00	29.834 
20:25	79.0	79.0	81.9	76	70.8	0	0	---	0.00	29.834 
20:30	79.0	79.0	81.9	76	70.8	0	0	---	0.00	29.834 
20:35	78.8	78.8	81.6	77	71.0	0	0	---	0.00	29.834 
20:40	78.8	78.8	81.6	77	71.0	0	0	---	0.00	29.834 
20:45	78.8	78.8	81.6	77	71.0	0	0	---	0.00	29.836 
20:50	78.8	78.8	81.7	78	71.3	0	0	---	0.00	29.836 
20:55	78.6	78.6	81.3	78	71.1	0	0	---	0.00	29.836 
21:00	78.6	78.6	81.3	78	71.1	0	1	0	0.00	29.818 
21:05	78.5	78.5	81.1	78	71.1	0	1	0	0.00	29.818 
21:10	78.3	78.3	80.8	79	71.2	0	0	---	0.00	29.818 
21:15	78.3	78.3	80.8	79	71.2	0	0	---	0.00	29.833 
21:20	78.3	78.3	80.8	79	71.2	0	0	---	0.00	29.833 
21:25	78.1	78.1	80.5	79	71.0	0	0	---	0.00	29.833 
21:30	77.9	77.9	80.1	79	70.8	0	0	---	0.00	29.844 
21:35	77.9	77.9	80.1	80	71.2	0	0	---	0.00	29.844 
21:40	77.7	77.7	79.8	80	71.0	0	0	---	0.00	29.844 
21:45	77.6	77.6	79.6	80	70.9	0	0	---	0.00	29.847 
21:50	77.4	77.4	79.2	81	71.1	0	0	---	0.00	29.847 
21:55	77.2	77.2	78.9	81	70.9	0	0	---	0.00	29.847 
22:00	77.2	77.2	78.9	82	71.3	0	0	---	0.00	29.862 
22:05	77.0	77.0	78.5	82	71.1	0	0	---	0.00	29.862 
22:10	77.0	77.0	78.5	82	71.1	0	0	---	0.00	29.862 
22:15	76.8	76.8	78.1	83	71.2	0	0	---	0.00	29.856 
22:20	76.7	76.7	77.9	83	71.1	0	0	---	0.00	29.856 
22:25	76.7	76.7	77.9	83	71.1	0	0	---	0.00	29.856 
22:30	76.5	76.5	77.5	84	71.3	0	0	---	0.00	29.861 
22:35	76.1	76.1	76.8	84	70.9	0	0	---	0.00	29.861 
22:40	76.0	76.0	76.7	84	70.8	0	0	---	0.00	29.861 
22:45	75.8	75.8	76.3	84	70.6	0	0	---	0.00	29.862 
22:50	75.6	75.6	75.9	85	70.8	0	0	---	0.00	29.862 
22:55	75.4	75.4	75.5	85	70.6	0	0	---	0.00	29.862 
23:00	75.3	75.3	75.2	86	70.8	0	0	---	0.00	29.870 
23:05	74.9	74.9	74.9	86	70.4	0	0	---	0.00	29.870 
23:10	74.9	74.9	74.9	87	70.8	0	0	---	0.00	29.870 
23:15	74.7	74.7	74.7	87	70.6	0	0	---	0.00	29.871 
23:20	74.6	74.6	74.6	88	70.8	0	0	---	0.00	29.871 
23:25	74.4	74.4	74.4	88	70.6	0	0	---	0.00	29.871 
23:30	74.2	74.2	74.2	88	70.4	0	0	---	0.00	29.874 
23:35	74.0	74.0	74.0	88	70.2	0	0	---	0.00	29.874 
23:40	73.7	73.7	73.7	88	69.9	0	0	---	0.00	29.874 
23:45	73.5	73.5	73.5	89	70.0	0	0	---	0.00	29.873 
23:50	73.3	73.3	73.3	89	69.9	0	0	---	0.00	29.873 
23:55	73.2	73.2	73.2	89	69.8	0	0	---	0.00	29.873 

CoCoRaHS
IN-AL-39
A2 Web Hosting
Creative Commons License
GoDaddy
search engine by freefind advanced

loaded 2018-11-21 00:34:13 • last modified 2010-11-18 10:43:29
Privacy PolicyDisclaimer
• wx.awcolley.com is powered by PmWiki v.2002016 •
• all content (unless otherwise noted) © 2018 A W Colley